Time;durP1;ratioP1;P1;durP2;ratioP2;P2;SDS_P1;SDS_P2;PMS_P1;PMS_P2;Temp;Humidity;BMP_temperature;BMP_pressure;BME280_temperature;BME280_humidity;BME280_pressure;Samples;Min_cycle;Max_cycle;Signal;HPM_P1;HPM_P2
2022/04/27 00:00:26;;;;;;;20.42;7.18;;;;;;;4.67;82.34;102192.56;5052156;28;20035;-76
2022/04/27 00:02:51;;;;;;;21.67;7.35;;;;;;;4.66;81.96;102185.53;5050790;28;20020;-76
2022/04/27 00:05:17;;;;;;;18.95;7.20;;;;;;;4.63;81.78;102180.28;5051788;28;20116;-75
2022/04/27 00:07:42;;;;;;;20.80;8.07;;;;;;;4.58;82.01;102180.38;5042729;28;20033;-75
2022/04/27 00:10:08;;;;;;;21.50;8.40;;;;;;;4.53;82.03;102176.97;5032514;28;20025;-75
2022/04/27 00:12:37;;;;;;;18.83;7.15;;;;;;;4.53;82.11;102183.16;5032025;28;20024;-75
2022/04/27 00:15:07;;;;;;;20.52;7.32;;;;;;;4.49;82.05;102184.16;5032246;28;20029;-75
2022/04/27 00:17:32;;;;;;;17.63;6.93;;;;;;;4.47;81.84;102179.81;5038238;28;20052;-75
2022/04/27 00:19:57;;;;;;;17.92;6.93;;;;;;;4.47;82.43;102170.03;5051842;28;20029;-75
2022/04/27 00:22:23;;;;;;;26.38;8.15;;;;;;;4.44;82.36;102171.91;5049971;28;20033;-75
2022/04/27 00:24:48;;;;;;;24.90;7.32;;;;;;;4.43;82.64;102173.69;5050583;28;20049;-75
2022/04/27 00:27:14;;;;;;;21.65;7.60;;;;;;;4.40;82.69;102171.09;5050595;28;20033;-75
2022/04/27 00:29:39;;;;;;;20.35;8.50;;;;;;;4.37;82.79;102171.19;5051724;28;20024;-75
2022/04/27 00:32:05;;;;;;;18.40;7.07;;;;;;;4.33;82.65;102175.72;5051509;28;20499;-75
2022/04/27 00:34:30;;;;;;;18.27;7.00;;;;;;;4.29;82.00;102176.72;5050363;28;20024;-75
2022/04/27 00:36:55;;;;;;;21.23;9.30;;;;;;;4.25;82.18;102183.03;5051382;28;20025;-75
2022/04/27 00:39:21;;;;;;;20.10;7.65;;;;;;;4.18;82.21;102179.63;5033542;28;20017;-75
2022/04/27 00:42:02;;;;;;;20.50;8.50;;;;;;;4.14;82.38;102183.31;5031591;28;20018;-75
2022/04/27 00:44:32;;;;;;;20.90;7.72;;;;;;;4.11;82.85;102194.00;5030467;28;20041;-75
2022/04/27 00:46:58;;;;;;;21.60;8.02;;;;;;;4.07;82.83;102189.69;5033258;28;20551;-75
2022/04/27 00:49:27;;;;;;;21.67;7.95;;;;;;;4.02;82.20;102197.75;5051524;28;20388;-75
2022/04/27 00:51:54;;;;;;;21.52;8.40;;;;;;;4.00;82.74;102193.41;5051342;28;20032;-75
2022/04/27 00:54:22;;;;;;;21.73;8.38;;;;;;;3.95;82.54;102198.84;5050191;28;20036;-75
2022/04/27 00:56:48;;;;;;;20.80;8.20;;;;;;;3.89;83.30;102198.09;5051627;28;20541;-75
2022/04/27 00:59:14;;;;;;;28.30;10.52;;;;;;;3.85;83.36;102192.84;5050138;28;20384;-75
2022/04/27 01:01:40;;;;;;;19.40;8.35;;;;;;;3.81;83.38;102201.81;5049929;28;20044;-75
2022/04/27 01:04:07;;;;;;;20.40;8.75;;;;;;;3.81;83.13;102199.16;5050132;28;20464;-75
2022/04/27 01:06:33;;;;;;;22.70;9.25;;;;;;;3.79;83.33;102202.75;5050914;28;20060;-75
2022/04/27 01:08:58;;;;;;;20.90;8.73;;;;;;;3.78;83.57;102201.88;5050100;28;20029;-75
2022/04/27 01:11:24;;;;;;;21.27;9.00;;;;;;;3.78;83.23;102201.88;5051527;28;20078;-75
2022/04/27 01:13:49;;;;;;;23.80;10.15;;;;;;;3.79;83.51;102206.31;5050088;28;20029;-75
2022/04/27 01:16:14;;;;;;;21.77;9.95;;;;;;;3.82;83.29;102208.88;5049811;28;20403;-75
2022/04/27 01:18:40;;;;;;;24.42;10.00;;;;;;;3.84;84.23;102204.38;5040640;28;20037;-75
2022/04/27 01:21:05;;;;;;;22.02;10.02;;;;;;;3.81;83.80;102209.78;5029889;28;20120;-75
2022/04/27 01:23:30;;;;;;;21.70;9.88;;;;;;;3.76;84.19;102211.66;5031203;28;20437;-75
2022/04/27 01:25:59;;;;;;;21.63;8.85;;;;;;;3.70;83.66;102211.81;5029845;28;20096;-75
2022/04/27 01:28:27;;;;;;;22.17;9.38;;;;;;;3.66;83.77;102208.34;5031278;28;20021;-75
2022/04/27 01:30:57;;;;;;;22.13;9.82;;;;;;;3.60;83.55;102211.16;5031197;28;20031;-75
2022/04/27 01:33:23;;;;;;;21.88;10.15;;;;;;;3.53;83.80;102220.19;5031783;28;20030;-75
2022/04/27 01:35:48;;;;;;;21.58;9.45;;;;;;;3.48;83.79;102211.41;5034971;28;20017;-75
2022/04/27 01:38:15;;;;;;;22.35;10.10;;;;;;;3.47;84.48;102218.53;5033540;28;20106;-75
2022/04/27 01:40:40;;;;;;;20.58;9.25;;;;;;;3.47;83.71;102212.31;5034947;28;20412;-75
2022/04/27 01:43:05;;;;;;;25.15;10.50;;;;;;;3.45;83.77;102220.31;5033531;28;20026;-75
2022/04/27 01:45:31;;;;;;;28.98;10.65;;;;;;;3.42;84.32;102212.41;5033484;28;20396;-75
2022/04/27 01:47:57;;;;;;;26.52;10.57;;;;;;;3.42;84.37;102225.69;5044281;28;20388;-75
2022/04/27 01:50:22;;;;;;;21.63;9.27;;;;;;;3.41;83.75;102221.31;5054462;28;20033;-75
2022/04/27 01:55:32;;;;;;;26.73;11.38;;;;;;;3.33;83.56;102225.91;5054731;28;20448;-75
2022/04/27 01:57:58;;;;;;;24.08;10.57;;;;;;;3.30;83.93;102216.22;5054727;28;20096;-75
2022/04/27 02:00:24;;;;;;;20.85;9.02;;;;;;;3.26;83.90;102219.81;5053266;28;20086;-75
2022/04/27 02:02:49;;;;;;;21.70;8.93;;;;;;;3.28;83.90;102217.13;5054253;28;20024;-75
2022/04/27 02:05:14;;;;;;;23.48;10.75;;;;;;;3.27;84.48;102216.28;5040951;28;20398;-75
2022/04/27 02:07:40;;;;;;;22.58;10.85;;;;;;;3.28;84.57;102222.44;5033610;28;20025;-75
2022/04/27 02:10:06;;;;;;;24.27;10.93;;;;;;;3.30;84.99;102221.53;5031625;28;20112;-75
2022/04/27 02:12:32;;;;;;;24.40;10.70;;;;;;;3.31;85.20;102222.41;5032840;28;20025;-75
2022/04/27 02:14:57;;;;;;;23.02;10.40;;;;;;;3.31;84.98;102220.63;5034329;28;20032;-75
2022/04/27 02:17:22;;;;;;;22.55;10.00;;;;;;;3.32;85.39;102226.81;5040240;28;20247;-75
2022/04/27 02:19:48;;;;;;;23.73;10.80;;;;;;;3.31;85.43;102223.28;5054504;28;20021;-75
2022/04/27 02:22:13;;;;;;;22.52;9.48;;;;;;;3.33;85.55;102232.09;5052558;28;20362;-75
2022/04/27 02:24:38;;;;;;;23.75;10.80;;;;;;;3.36;85.30;102230.28;5054016;28;20396;-75
2022/04/27 02:27:03;;;;;;;24.05;10.63;;;;;;;3.38;85.49;102229.31;5052547;28;20032;-75
2022/04/27 02:29:29;;;;;;;22.58;10.68;;;;;;;3.38;84.87;102231.97;5053916;28;20040;-75
2022/04/27 02:31:54;;;;;;;24.13;11.00;;;;;;;3.39;85.36;102231.09;5053847;28;20464;-75
2022/04/27 02:34:19;;;;;;;21.70;9.55;;;;;;;3.40;85.71;102234.63;5053808;28;20036;-75
2022/04/27 02:36:45;;;;;;;23.00;9.50;;;;;;;3.38;85.12;102241.75;5052340;28;20040;-75
2022/04/27 02:39:10;;;;;;;21.70;9.07;;;;;;;3.40;85.27;102238.16;5023360;28;20375;-75
2022/04/27 02:41:35;;;;;;;23.42;10.77;;;;;;;3.41;85.16;102242.56;5014004;28;20517;-75
2022/04/27 02:44:01;;;;;;;24.92;10.75;;;;;;;3.37;85.51;102246.19;5012307;28;20018;-75
2022/04/27 02:46:26;;;;;;;24.70;10.85;;;;;;;3.38;85.53;102247.06;5012388;28;20115;-75
2022/04/27 02:51:53;;;;;;;23.40;10.57;;;;;;;3.38;85.37;102255.03;5053193;28;20039;-75
2022/04/27 02:54:22;;;;;;;26.60;12.05;;;;;;;3.36;85.31;102255.06;5053424;28;20111;-75
2022/04/27 02:56:48;;;;;;;25.13;11.68;;;;;;;3.30;85.84;102250.75;5053581;28;20440;-75
2022/04/27 02:59:14;;;;;;;23.40;11.25;;;;;;;3.30;85.61;102255.19;5053329;28;20354;-75
2022/04/27 03:01:39;;;;;;;24.58;11.98;;;;;;;3.28;85.73;102255.22;5053163;28;20032;-75
2022/04/27 03:04:06;;;;;;;27.23;13.20;;;;;;;3.26;85.37;102250.84;5053586;28;20033;-75
2022/04/27 03:06:31;;;;;;;24.95;11.57;;;;;;;3.23;84.93;102251.78;5052884;28;20049;-75
2022/04/27 03:08:56;;;;;;;27.92;11.77;;;;;;;3.22;85.15;102249.16;5051796;28;20166;-75
2022/04/27 03:11:22;;;;;;;24.60;12.20;;;;;;;3.18;85.31;102252.78;5052952;28;20033;-75
2022/04/27 03:13:47;;;;;;;24.60;11.77;;;;;;;3.17;84.81;102251.03;5053243;28;20036;-75
2022/04/27 03:16:12;;;;;;;26.20;12.63;;;;;;;3.13;85.20;102253.75;5053266;28;20029;-75
2022/04/27 03:18:38;;;;;;;26.17;12.07;;;;;;;3.12;84.89;102253.78;5053024;28;20115;-75
2022/04/27 03:21:03;;;;;;;25.70;12.70;;;;;;;3.11;84.82;102257.34;5051886;28;20380;-75
2022/04/27 03:23:28;;;;;;;26.15;13.55;;;;;;;3.05;84.54;102257.47;5052855;28;20087;-75
2022/04/27 03:25:54;;;;;;;25.73;13.10;;;;;;;3.01;84.32;102259.28;5052860;28;20025;-75
2022/04/27 03:28:19;;;;;;;24.13;11.73;;;;;;;2.97;84.78;102254.94;5037910;28;20123;-75
2022/04/27 03:30:44;;;;;;;25.27;12.32;;;;;;;2.93;84.38;102253.28;5032527;28;20021;-75
2022/04/27 03:33:09;;;;;;;29.65;14.45;;;;;;;2.93;84.86;102254.13;5031629;28;20481;-75
2022/04/27 03:35:36;;;;;;;28.42;13.13;;;;;;;2.93;85.01;102259.44;5032566;28;20092;-75
2022/04/27 03:38:03;;;;;;;25.83;12.88;;;;;;;2.93;84.54;102263.91;5032614;28;20032;-75
2022/04/27 03:40:28;;;;;;;27.55;13.45;;;;;;;2.92;85.20;102246.19;5032707;28;20114;-75
2022/04/27 03:42:53;;;;;;;24.90;12.48;;;;;;;2.88;85.18;102255.97;5031391;28;20026;-75
2022/04/27 03:45:20;;;;;;;26.58;12.73;;;;;;;2.88;84.97;102260.44;5032641;28;20028;-75
2022/04/27 03:47:47;;;;;;;25.80;12.95;;;;;;;2.81;85.07;102259.66;5041769;28;20472;-75
2022/04/27 03:50:12;;;;;;;28.92;12.45;;;;;;;2.79;84.90;102262.34;5051038;28;20033;-75
2022/04/27 03:52:37;;;;;;;25.45;12.65;;;;;;;2.77;85.00;102269.47;5052148;28;20105;-75
2022/04/27 03:55:03;;;;;;;28.70;12.95;;;;;;;2.71;84.88;102269.59;5051069;28;20021;-75
2022/04/27 03:57:28;;;;;;;27.23;12.60;;;;;;;2.69;84.78;102275.81;5049994;28;20506;-75
2022/04/27 03:59:54;;;;;;;25.67;13.00;;;;;;;2.68;85.04;102272.28;5051123;28;20029;-75
2022/04/27 04:02:20;;;;;;;23.85;12.20;;;;;;;2.67;84.87;102283.81;5052063;28;20021;-75
2022/04/27 04:04:45;;;;;;;26.90;13.63;;;;;;;2.62;84.68;102281.25;5051660;28;20025;-75
2022/04/27 04:07:12;;;;;;;26.25;13.65;;;;;;;2.60;84.92;102287.47;5047673;28;20401;-75
2022/04/27 04:09:38;;;;;;;26.30;12.73;;;;;;;2.56;84.94;102283.09;5032291;28;20025;-75
2022/04/27 04:12:04;;;;;;;25.55;12.35;;;;;;;2.56;84.99;102296.38;5032081;28;20036;-75
2022/04/27 04:14:30;;;;;;;26.77;12.98;;;;;;;2.52;84.96;102292.91;5030698;28;20040;-75
2022/04/27 04:16:55;;;;;;;24.23;12.13;;;;;;;2.50;84.86;102291.19;5034707;28;20028;-75
2022/04/27 04:19:20;;;;;;;24.75;11.40;;;;;;;2.51;85.04;102292.94;5050484;28;20426;-75
2022/04/27 04:21:45;;;;;;;26.90;13.48;;;;;;;2.51;84.93;102288.50;5051705;28;20036;-75
2022/04/27 04:24:11;;;;;;;25.67;12.40;;;;;;;2.51;85.19;102299.09;5051742;28;20219;-75
2022/04/27 04:29:20;;;;;;;25.05;11.88;;;;;;;2.45;84.96;102297.44;5052069;28;20086;-75
2022/04/27 04:31:45;;;;;;;27.48;13.18;;;;;;;2.44;85.26;102302.75;5051634;28;20460;-75
2022/04/27 04:34:10;;;;;;;23.00;11.18;;;;;;;2.45;85.38;102300.09;5050649;28;20062;-75
2022/04/27 04:36:36;;;;;;;25.67;13.30;;;;;;;2.44;84.91;102306.28;5051480;28;20036;-75
2022/04/27 04:39:01;;;;;;;26.95;12.48;;;;;;;2.43;85.40;102317.81;5050003;28;20072;-75
2022/04/27 04:41:26;;;;;;;25.60;13.55;;;;;;;2.43;85.51;102315.16;5050263;28;20025;-75
2022/04/27 04:43:52;;;;;;;28.73;13.65;;;;;;;2.43;85.76;102317.81;5051619;28;20047;-75
2022/04/27 04:46:17;;;;;;;26.85;13.35;;;;;;;2.47;86.02;102323.06;5051349;28;20468;-75
2022/04/27 04:48:43;;;;;;;26.27;13.32;;;;;;;2.48;85.74;102324.84;5051402;28;20037;-75
2022/04/27 04:51:08;;;;;;;27.35;13.98;;;;;;;2.49;86.66;102330.13;5051406;28;20029;-75
2022/04/27 04:53:34;;;;;;;25.98;13.40;;;;;;;2.50;86.69;102329.19;5051530;28;20430;-75
2022/04/27 04:55:59;;;;;;;26.05;14.30;;;;;;;2.52;86.97;102334.47;5050606;28;20557;-75
2022/04/27 04:58:24;;;;;;;30.10;13.70;;;;;;;2.54;87.07;102327.38;5031439;28;20033;-75
2022/04/27 05:00:49;;;;;;;27.52;13.65;;;;;;;2.55;87.01;102330.00;5031334;28;20025;-75
2022/04/27 05:03:16;;;;;;;24.80;11.85;;;;;;;2.58;87.36;102329.97;5031550;28;20021;-75
2022/04/27 05:05:41;;;;;;;27.95;13.35;;;;;;;2.59;87.22;102337.03;5030936;28;20527;-75
2022/04/27 05:08:08;;;;;;;27.38;13.15;;;;;;;2.58;87.58;102337.91;5033426;28;20033;-75
2022/04/27 05:10:34;;;;;;;26.88;13.32;;;;;;;2.60;87.27;102343.19;5035348;28;20029;-75
2022/04/27 05:12:59;;;;;;;27.33;14.07;;;;;;;2.65;87.00;102340.47;5035501;28;20025;-75
2022/04/27 05:15:25;;;;;;;27.90;14.80;;;;;;;2.68;87.01;102338.66;5035518;28;20029;-75
2022/04/27 05:17:50;;;;;;;32.05;13.77;;;;;;;2.72;86.75;102345.66;5045216;28;20472;-75
2022/04/27 05:20:15;;;;;;;26.80;14.80;;;;;;;2.77;87.22;102346.47;5054012;28;20033;-75
2022/04/27 05:22:40;;;;;;;27.27;14.23;;;;;;;2.83;88.21;102348.16;5055019;28;20387;-75
2022/04/27 05:25:08;;;;;;;29.88;15.20;;;;;;;2.90;88.31;102343.59;5054920;28;20031;-75
2022/04/27 05:27:34;;;;;;;26.65;15.98;;;;;;;2.97;88.48;102345.25;5047913;28;20415;-75
2022/04/27 05:32:45;;;;;;;29.42;15.32;;;;;;;3.10;87.96;102356.53;5034924;28;20044;-75
2022/04/27 05:35:11;;;;;;;29.20;16.48;;;;;;;3.15;88.46;102360.00;5035006;28;20021;-75
2022/04/27 05:37:37;;;;;;;29.02;15.57;;;;;;;3.23;88.52;102363.38;5034566;28;20025;-75
2022/04/27 05:40:04;;;;;;;28.05;15.45;;;;;;;3.31;88.91;102369.44;5035211;28;20034;-75
2022/04/27 05:42:30;;;;;;;30.08;15.05;;;;;;;3.39;88.95;102369.28;5033571;28;20033;-75
2022/04/27 05:44:57;;;;;;;28.23;15.93;;;;;;;3.47;88.71;102366.47;5034757;28;20053;-75
2022/04/27 05:47:23;;;;;;;30.52;16.52;;;;;;;3.58;89.23;102368.94;5040881;28;20472;-75
2022/04/27 05:49:50;;;;;;;30.60;16.60;;;;;;;3.70;89.84;102374.00;5054633;28;20495;-75
2022/04/27 05:52:16;;;;;;;30.88;15.55;;;;;;;3.79;90.06;102367.63;5054691;28;20448;-75
2022/04/27 05:54:41;;;;;;;36.33;15.40;;;;;;;3.88;90.00;102378.09;5054704;28;20111;-75
2022/04/27 05:57:06;;;;;;;28.45;14.93;;;;;;;3.98;90.43;102374.34;5054349;28;20056;-75
2022/04/27 05:59:31;;;;;;;27.52;14.27;;;;;;;4.05;90.50;102383.03;5054366;28;20032;-75
2022/04/27 06:01:57;;;;;;;26.55;14.60;;;;;;;4.15;90.23;102383.72;5054266;28;20107;-75
2022/04/27 06:04:22;;;;;;;28.55;13.88;;;;;;;4.22;89.96;102382.69;5054400;28;20032;-75
2022/04/27 06:06:47;;;;;;;30.52;14.57;;;;;;;4.30;89.67;102379.84;5051262;28;20052;-76
2022/04/27 06:09:13;;;;;;;27.30;13.98;;;;;;;4.36;89.76;102380.59;5034576;28;20104;-76
2022/04/27 06:11:39;;;;;;;25.92;12.93;;;;;;;4.44;89.24;102380.41;5034142;28;20057;-76
2022/04/27 06:14:04;;;;;;;27.95;13.38;;;;;;;4.54;89.67;102389.94;5034391;28;20103;-76
2022/04/27 06:16:32;;;;;;;27.48;14.15;;;;;;;4.64;89.28;102395.94;5034087;28;20021;-76
2022/04/27 06:18:58;;;;;;;25.50;13.60;;;;;;;4.76;89.13;102399.19;5052914;28;20360;-76
2022/04/27 06:21:23;;;;;;;28.58;14.45;;;;;;;4.85;89.29;102399.84;5053913;28;20039;-76
2022/04/27 06:23:48;;;;;;;27.33;14.30;;;;;;;4.93;88.72;102397.00;5052716;28;20048;-76
2022/04/27 06:26:14;;;;;;;26.52;13.07;;;;;;;5.05;88.90;102399.38;5053776;28;20036;-76
2022/04/27 06:28:39;;;;;;;27.20;13.07;;;;;;;5.15;88.56;102393.81;5054111;28;20135;-76
2022/04/27 06:31:05;;;;;;;28.50;13.00;;;;;;;5.24;88.63;102391.78;5053837;28;20032;-76
2022/04/27 06:33:31;;;;;;;26.73;12.77;;;;;;;5.34;87.88;102410.19;5053930;28;20020;-76
2022/04/27 06:35:56;;;;;;;25.05;12.35;;;;;;;5.43;87.94;102407.28;5053599;28;20013;-76
2022/04/27 06:38:21;;;;;;;26.63;12.85;;;;;;;5.52;88.72;102406.16;5052471;28;20051;-76
2022/04/27 06:40:47;;;;;;;26.63;12.35;;;;;;;5.62;88.76;102412.97;5052266;28;20491;-76
2022/04/27 06:43:12;;;;;;;26.13;12.60;;;;;;;5.70;87.83;102404.78;5052313;28;20028;-76
2022/04/27 06:45:37;;;;;;;31.63;12.40;;;;;;;5.79;87.70;102407.19;5053635;28;20036;-76
2022/04/27 06:48:03;;;;;;;25.13;11.23;;;;;;;5.87;86.09;102415.88;5052149;28;20059;-76
2022/04/27 06:50:29;;;;;;;24.48;11.18;;;;;;;5.99;85.89;102416.44;5053412;28;20025;-76
2022/04/27 06:52:55;;;;;;;24.73;11.10;;;;;;;6.08;86.38;102416.19;5052058;28;20037;-76
2022/04/27 06:55:20;;;;;;;26.67;11.98;;;;;;;6.18;86.13;102423.00;5052294;28;20017;-76
2022/04/27 06:57:46;;;;;;;25.05;11.65;;;;;;;6.27;85.26;102421.88;5038221;28;20435;-76
2022/04/27 07:00:14;;;;;;;25.55;11.63;;;;;;;6.36;85.19;102420.72;5033492;28;20033;-76
2022/04/27 07:02:40;;;;;;;25.83;10.48;;;;;;;6.46;86.24;102427.53;5032123;28;20107;-76
2022/04/27 07:05:09;;;;;;;22.85;10.55;;;;;;;6.57;84.66;102435.19;5032988;28;20076;-76
2022/04/27 07:07:35;;;;;;;23.60;11.23;;;;;;;6.66;86.61;102434.91;5033006;28;20071;-76
2022/04/27 07:10:01;;;;;;;26.30;11.90;;;;;;;6.74;84.15;102426.66;5033412;28;20392;-76
2022/04/27 07:12:26;;;;;;;23.85;11.43;;;;;;;6.82;84.25;102436.19;5033224;28;20021;-76
2022/04/27 07:14:51;;;;;;;26.40;11.55;;;;;;;6.90;81.20;102430.59;5033168;28;20104;-76
2022/04/27 07:17:18;;;;;;;27.98;11.45;;;;;;;7.00;80.78;102432.03;5038555;28;20013;-76
2022/04/27 07:19:44;;;;;;;22.50;10.50;;;;;;;7.11;81.16;102436.16;5052989;28;20109;-76
2022/04/27 07:22:10;;;;;;;24.23;10.13;;;;;;;7.20;78.65;102437.66;5051426;28;20060;-76
2022/04/27 07:24:37;;;;;;;21.90;10.02;;;;;;;7.28;79.19;102438.28;5052641;28;20028;-76
2022/04/27 07:27:02;;;;;;;23.20;9.63;;;;;;;7.33;76.39;102441.66;5048567;28;20472;-76
2022/04/27 07:29:28;;;;;;;21.65;10.00;;;;;;;7.38;75.17;102450.41;5032830;28;20072;-76
2022/04/27 07:31:53;;;;;;;23.05;9.50;;;;;;;7.47;76.72;102452.75;5030300;28;20026;-76
2022/04/27 07:34:18;;;;;;;22.20;8.88;;;;;;;7.57;79.11;102452.41;5032672;28;20036;-76
2022/04/27 07:36:43;;;;;;;27.13;9.65;;;;;;;7.63;76.54;102452.22;5031142;28;20045;-76
2022/04/27 07:39:09;;;;;;;23.65;8.98;;;;;;;7.70;75.69;102451.94;5031452;28;20029;-76
2022/04/27 07:41:35;;;;;;;19.92;8.60;;;;;;;7.82;78.19;102456.00;5032653;28;20025;-76
2022/04/27 07:44:01;;;;;;;22.73;8.35;;;;;;;7.84;73.70;102447.91;5031127;28;20025;-76
2022/04/27 07:46:26;;;;;;;21.10;8.48;;;;;;;7.92;73.95;102451.19;5032390;28;20105;-76
2022/04/27 07:48:52;;;;;;;22.02;9.35;;;;;;;7.99;73.21;102451.81;5051082;28;20037;-76
2022/04/27 07:51:18;;;;;;;24.23;8.40;;;;;;;8.05;69.14;102452.47;5050891;28;20035;-76
2022/04/27 07:53:44;;;;;;;19.13;7.05;;;;;;;8.14;70.07;102455.72;5052192;28;20029;-76
2022/04/27 07:56:09;;;;;;;21.42;7.53;;;;;;;8.22;69.50;102453.66;5050954;28;20116;-76
2022/04/27 07:58:35;;;;;;;20.83;7.15;;;;;;;8.28;67.41;102457.91;5052212;28;20040;-76
2022/04/27 08:01:01;;;;;;;19.35;7.10;;;;;;;8.33;66.49;102459.47;5052051;28;20074;-76
2022/04/27 08:03:26;;;;;;;15.57;5.25;;;;;;;8.44;69.50;102459.09;5051973;28;20384;-76
2022/04/27 08:05:51;;;;;;;20.20;6.07;;;;;;;8.49;63.21;102453.56;5051815;28;20412;-76
2022/04/27 08:08:17;;;;;;;16.98;6.18;;;;;;;8.58;65.11;102455.91;5050760;28;20547;-76
2022/04/27 08:10:42;;;;;;;17.08;6.30;;;;;;;8.65;63.66;102465.41;5052019;28;20029;-76
2022/04/27 08:13:07;;;;;;;18.67;6.38;;;;;;;8.69;63.23;102459.00;5051955;28;20021;-76
2022/04/27 08:15:32;;;;;;;18.98;6.57;;;;;;;8.76;65.04;102464.16;5051913;28;20499;-76
2022/04/27 08:18:03;;;;;;;17.40;5.60;;;;;;;8.82;64.38;102467.44;5046469;28;20542;-76
2022/04/27 08:23:16;;;;;;;16.48;5.18;;;;;;;9.01;62.59;102475.63;5051972;28;20083;-76
2022/04/27 08:25:42;;;;;;;17.30;5.90;;;;;;;9.06;63.01;102473.63;5051772;28;20017;-76
2022/04/27 08:28:08;;;;;;;19.55;6.75;;;;;;;9.13;63.46;102482.28;5050344;28;20435;-76
2022/04/27 08:30:38;;;;;;;21.40;6.47;;;;;;;9.15;61.89;102477.75;5051712;28;20032;-76
2022/04/27 08:33:05;;;;;;;18.95;6.53;;;;;;;9.22;62.16;102481.03;5050481;28;20039;-76
2022/04/27 08:35:31;;;;;;;18.13;6.05;;;;;;;9.26;62.49;102478.16;5051581;28;20052;-76
2022/04/27 08:37:57;;;;;;;19.52;6.88;;;;;;;9.32;61.93;102479.72;5050015;28;20569;-76
2022/04/27 08:40:24;;;;;;;19.17;6.50;;;;;;;9.40;62.67;102474.91;5051597;28;20077;-76
2022/04/27 08:42:50;;;;;;;19.65;7.35;;;;;;;9.45;60.44;102483.63;5051129;28;20048;-76
2022/04/27 08:45:17;;;;;;;20.15;7.18;;;;;;;9.52;60.96;102480.69;5050198;28;20615;-76
2022/04/27 08:47:43;;;;;;;21.23;6.15;;;;;;;9.59;62.64;102483.03;5051144;28;20029;-76
2022/04/27 08:50:18;;;;;;;20.10;6.85;;;;;;;9.65;63.14;102479.22;5051763;28;20032;-76
2022/04/27 08:52:45;;;;;;;17.67;7.28;;;;;;;9.69;60.00;102483.50;5051353;28;20111;-76
2022/04/27 08:55:12;;;;;;;20.48;7.20;;;;;;;9.73;60.92;102490.50;5051374;28;20021;-76
2022/04/27 08:57:38;;;;;;;18.85;7.13;;;;;;;9.78;60.85;102493.88;5023545;28;20025;-76
2022/04/27 09:00:06;;;;;;;21.02;7.03;;;;;;;9.82;60.45;102491.03;5011881;28;20062;-76
2022/04/27 09:02:32;;;;;;;19.58;7.85;;;;;;;9.87;59.64;102494.38;5010248;28;20085;-76
2022/04/27 09:05:18;;;;;;;19.35;7.85;;;;;;;9.92;61.10;102495.06;5011310;28;20046;-76
2022/04/27 09:07:46;;;;;;;20.35;7.18;;;;;;;9.89;57.03;102495.19;5011384;28;20030;-76
2022/04/27 09:10:17;;;;;;;17.60;6.30;;;;;;;9.95;59.00;102490.41;5011662;28;20029;-76
2022/04/27 09:12:48;;;;;;;17.80;6.20;;;;;;;10.01;57.99;102489.28;5026563;28;20026;-76
2022/04/27 09:15:15;;;;;;;17.35;6.13;;;;;;;10.06;57.13;102491.75;5011389;28;20050;-76
2022/04/27 09:23:29;;;;;;;20.42;6.65;;;;;;;10.15;55.81;102491.34;5050940;28;20036;-76
2022/04/27 09:25:56;;;;;;;19.35;7.38;;;;;;;10.17;55.66;102485.91;5050964;28;20029;-76
2022/04/27 09:28:24;;;;;;;18.27;6.85;;;;;;;10.23;56.87;102485.63;5037244;28;20114;-76
2022/04/27 09:30:49;;;;;;;18.52;6.85;;;;;;;10.31;57.52;102480.78;5031042;28;20031;-76
2022/04/27 09:33:31;;;;;;;20.02;6.65;;;;;;;10.38;59.23;102487.66;5031084;28;20029;-76
2022/04/27 09:35:56;;;;;;;21.48;7.00;;;;;;;10.44;55.67;102481.09;5029654;28;20434;-76
2022/04/27 09:38:22;;;;;;;19.73;7.00;;;;;;;10.48;55.61;102483.59;5031017;28;20034;-76
2022/04/27 09:40:56;;;;;;;22.65;6.90;;;;;;;10.54;55.22;102486.91;5031038;28;20362;-76
2022/04/27 09:43:44;;;;;;;19.48;7.05;;;;;;;10.61;56.56;102491.06;5030925;28;20033;-76
2022/04/27 09:46:22;;;;;;;18.13;6.57;;;;;;;10.65;56.09;102492.69;5029467;28;20022;-76
2022/04/27 09:49:07;;;;;;;21.52;7.93;;;;;;;10.73;56.05;102495.88;5047651;28;20032;-76
2022/04/27 09:51:34;;;;;;;20.23;7.35;;;;;;;10.75;53.90;102495.81;5049389;28;20033;-76
2022/04/27 09:54:00;;;;;;;18.38;7.38;;;;;;;10.77;54.59;102500.16;5033108;28;20037;-76
2022/04/27 09:56:28;;;;;;;19.33;7.43;;;;;;;10.78;53.43;102492.97;5053097;28;20472;-76
2022/04/27 09:59:03;;;;;;;18.85;7.68;;;;;;;10.77;54.06;102500.16;5054489;28;20025;-76
2022/04/27 10:01:31;;;;;;;21.30;8.38;;;;;;;10.82;53.20;102487.38;5054349;28;20052;-76
2022/04/27 10:03:57;;;;;;;17.90;7.63;;;;;;;10.94;56.80;102487.72;5054197;28;20052;-75
2022/04/27 10:06:23;;;;;;;21.00;7.30;;;;;;;11.05;57.17;102488.06;5053665;28;20075;-75
2022/04/27 10:08:51;;;;;;;20.80;6.78;;;;;;;11.13;55.79;102490.38;5052696;28;20511;-76
2022/04/27 10:11:17;;;;;;;17.38;7.22;;;;;;;11.16;55.04;102496.47;5052712;28;20534;-76
2022/04/27 10:13:43;;;;;;;19.25;7.80;;;;;;;11.11;54.50;102492.25;5054144;28;20071;-80
2022/04/27 10:16:08;;;;;;;21.05;7.95;;;;;;;11.14;53.86;102497.50;5052742;28;20052;-76
2022/04/27 10:18:34;;;;;;;22.52;9.43;;;;;;;11.16;53.96;102488.41;5048214;28;20094;-76
2022/04/27 10:21:01;;;;;;;21.23;8.20;;;;;;;11.14;55.47;102493.00;5053836;28;20029;-76
2022/04/27 10:23:28;;;;;;;20.52;8.63;;;;;;;11.09;55.37;102489.66;5052004;28;20021;-76
2022/04/27 10:26:14;;;;;;;19.58;8.63;;;;;;;11.04;54.74;102486.34;5052577;28;20061;-76
2022/04/27 10:28:46;;;;;;;19.95;8.27;;;;;;;11.02;53.74;102480.13;5053857;28;20101;-76
2022/04/27 10:31:11;;;;;;;21.50;7.72;;;;;;;11.05;52.22;102476.44;5053887;28;20056;-76
2022/04/27 10:33:43;;;;;;;20.63;8.38;;;;;;;11.12;52.63;102476.03;5052365;28;20067;-76
2022/04/27 10:36:36;;;;;;;19.75;8.02;;;;;;;11.23;53.25;102475.53;5052163;28;20033;-76
2022/04/27 10:39:14;;;;;;;20.90;8.88;;;;;;;11.29;55.71;102477.00;5052997;28;20052;-76
2022/04/27 10:41:41;;;;;;;20.55;7.43;;;;;;;11.35;53.41;102479.41;5053155;28;20063;-76
2022/04/27 10:44:07;;;;;;;21.85;9.10;;;;;;;11.44;53.56;102472.69;5052118;28;20388;-76
2022/04/27 10:46:40;;;;;;;19.35;7.45;;;;;;;11.58;54.02;102474.66;5053193;28;20033;-76
2022/04/27 10:49:24;;;;;;;20.48;8.30;;;;;;;11.58;52.38;102463.91;5013792;28;20038;-76
2022/04/27 10:52:08;;;;;;;19.63;7.55;;;;;;;11.61;53.09;102472.69;5013714;28;20022;-76
2022/04/27 10:54:37;;;;;;;19.30;7.72;;;;;;;11.71;53.58;102465.88;5013956;28;20036;-76
2022/04/27 10:57:14;;;;;;;21.05;8.13;;;;;;;11.81;54.34;102460.88;5032204;28;20061;-76
2022/04/27 10:59:47;;;;;;;21.70;8.98;;;;;;;11.91;52.02;102465.78;5033307;28;20075;-76
2022/04/27 11:02:36;;;;;;;23.65;8.45;;;;;;;12.01;53.01;102470.63;5031894;28;20087;-76
2022/04/27 11:05:03;;;;;;;20.80;7.95;;;;;;;12.07;52.34;102472.13;5032540;28;20405;-76
2022/04/27 11:07:31;;;;;;;22.05;9.10;;;;;;;12.09;51.97;102464.81;5033022;28;20507;-76
2022/04/27 11:10:09;;;;;;;20.15;8.15;;;;;;;12.05;54.44;102469.50;5033188;28;20112;-76
2022/04/27 11:12:36;;;;;;;22.23;8.95;;;;;;;11.96;52.63;102474.50;5033038;28;20025;-76
2022/04/27 11:15:03;;;;;;;22.27;8.07;;;;;;;11.89;52.68;102468.56;5033088;28;20473;-76
2022/04/27 11:17:29;;;;;;;19.92;7.88;;;;;;;11.91;51.13;102465.78;5039944;28;20032;-76
2022/04/27 11:19:54;;;;;;;22.20;8.82;;;;;;;12.00;52.60;102471.56;5052751;28;20028;-76
2022/04/27 11:22:20;;;;;;;21.52;8.45;;;;;;;12.10;53.16;102455.78;5051362;28;20029;-76
2022/04/27 11:24:49;;;;;;;22.58;7.53;;;;;;;12.11;49.51;102460.22;5052686;28;20076;-76
2022/04/27 11:27:22;;;;;;;19.38;8.48;;;;;;;12.16;50.96;102460.84;5048512;28;20108;-76
2022/04/27 11:29:51;;;;;;;19.20;8.27;;;;;;;12.27;50.60;102462.06;5033019;28;20021;-76
2022/04/27 11:32:16;;;;;;;19.60;8.20;;;;;;;12.37;49.53;102460.63;5031394;28;20025;-76
2022/04/27 11:34:47;;;;;;;19.00;8.02;;;;;;;12.43;48.39;102463.00;5032699;28;20048;-76
2022/04/27 11:37:20;;;;;;;20.27;8.07;;;;;;;12.54;49.74;102459.69;5032541;28;20056;-76